sensor_id;sensor_type;location;lat;lon;timestamp;P1;durP1;ratioP1;P2;durP2;ratioP2
10309;SDS011;5200;43.236;27.986;2023-04-24T00:02:22;11.68;;;4.07;;
10309;SDS011;5200;43.236;27.986;2023-04-24T00:04:49;7.78;;;4.15;;
10309;SDS011;5200;43.236;27.986;2023-04-24T00:07:17;11.80;;;4.40;;
10309;SDS011;5200;43.236;27.986;2023-04-24T00:09:45;8.20;;;3.90;;
10309;SDS011;5200;43.236;27.986;2023-04-24T00:12:12;11.32;;;4.72;;
10309;SDS011;5200;43.236;27.986;2023-04-24T00:14:38;14.63;;;4.22;;
10309;SDS011;5200;43.236;27.986;2023-04-24T00:17:05;11.38;;;4.15;;
10309;SDS011;5200;43.236;27.986;2023-04-24T00:19:32;8.10;;;4.13;;
10309;SDS011;5200;43.236;27.986;2023-04-24T00:21:59;4.85;;;3.55;;
10309;SDS011;5200;43.236;27.986;2023-04-24T00:24:27;11.65;;;3.67;;
10309;SDS011;5200;43.236;27.986;2023-04-24T00:26:54;9.68;;;3.65;;
10309;SDS011;5200;43.236;27.986;2023-04-24T00:29:21;8.32;;;4.53;;
10309;SDS011;5200;43.236;27.986;2023-04-24T00:31:47;5.65;;;3.70;;
10309;SDS011;5200;43.236;27.986;2023-04-24T00:34:14;10.48;;;4.00;;
10309;SDS011;5200;43.236;27.986;2023-04-24T00:36:41;6.25;;;4.20;;
10309;SDS011;5200;43.236;27.986;2023-04-24T00:39:08;8.63;;;4.25;;
10309;SDS011;5200;43.236;27.986;2023-04-24T00:41:36;9.88;;;4.07;;
10309;SDS011;5200;43.236;27.986;2023-04-24T00:44:03;7.50;;;4.10;;
10309;SDS011;5200;43.236;27.986;2023-04-24T00:46:30;7.13;;;4.20;;
10309;SDS011;5200;43.236;27.986;2023-04-24T00:48:58;6.90;;;4.72;;
10309;SDS011;5200;43.236;27.986;2023-04-24T00:51:25;8.10;;;3.90;;
10309;SDS011;5200;43.236;27.986;2023-04-24T00:53:52;9.40;;;4.40;;
10309;SDS011;5200;43.236;27.986;2023-04-24T00:56:19;11.82;;;4.03;;
10309;SDS011;5200;43.236;27.986;2023-04-24T00:58:48;8.32;;;3.63;;
10309;SDS011;5200;43.236;27.986;2023-04-24T01:01:14;8.07;;;3.85;;
10309;SDS011;5200;43.236;27.986;2023-04-24T01:03:41;9.02;;;3.60;;
10309;SDS011;5200;43.236;27.986;2023-04-24T01:06:08;5.20;;;4.18;;
10309;SDS011;5200;43.236;27.986;2023-04-24T01:08:36;6.15;;;3.85;;
10309;SDS011;5200;43.236;27.986;2023-04-24T01:11:04;10.10;;;4.35;;
10309;SDS011;5200;43.236;27.986;2023-04-24T01:13:31;4.55;;;3.20;;
10309;SDS011;5200;43.236;27.986;2023-04-24T01:16:00;5.78;;;3.65;;
10309;SDS011;5200;43.236;27.986;2023-04-24T01:18:27;9.25;;;3.85;;
10309;SDS011;5200;43.236;27.986;2023-04-24T01:20:56;9.65;;;4.43;;
10309;SDS011;5200;43.236;27.986;2023-04-24T01:23:26;9.82;;;4.28;;
10309;SDS011;5200;43.236;27.986;2023-04-24T01:25:53;14.18;;;4.43;;
10309;SDS011;5200;43.236;27.986;2023-04-24T01:28:20;10.35;;;4.03;;
10309;SDS011;5200;43.236;27.986;2023-04-24T01:30:48;8.85;;;3.83;;
10309;SDS011;5200;43.236;27.986;2023-04-24T01:33:15;9.02;;;4.05;;
10309;SDS011;5200;43.236;27.986;2023-04-24T01:35:42;10.32;;;4.00;;
10309;SDS011;5200;43.236;27.986;2023-04-24T01:38:09;9.60;;;4.00;;
10309;SDS011;5200;43.236;27.986;2023-04-24T01:40:37;8.40;;;3.97;;
10309;SDS011;5200;43.236;27.986;2023-04-24T01:43:04;6.00;;;3.78;;
10309;SDS011;5200;43.236;27.986;2023-04-24T01:45:31;10.05;;;4.53;;
10309;SDS011;5200;43.236;27.986;2023-04-24T01:47:58;11.52;;;4.45;;
10309;SDS011;5200;43.236;27.986;2023-04-24T01:50:26;10.02;;;3.72;;
10309;SDS011;5200;43.236;27.986;2023-04-24T01:52:53;9.32;;;3.95;;
10309;SDS011;5200;43.236;27.986;2023-04-24T01:55:20;7.18;;;3.50;;
10309;SDS011;5200;43.236;27.986;2023-04-24T01:57:49;10.80;;;3.72;;
10309;SDS011;5200;43.236;27.986;2023-04-24T02:00:16;10.52;;;4.07;;
10309;SDS011;5200;43.236;27.986;2023-04-24T02:02:43;9.20;;;3.47;;
10309;SDS011;5200;43.236;27.986;2023-04-24T02:05:11;7.70;;;3.33;;
10309;SDS011;5200;43.236;27.986;2023-04-24T02:07:38;7.43;;;4.07;;
10309;SDS011;5200;43.236;27.986;2023-04-24T02:10:05;7.03;;;3.55;;
10309;SDS011;5200;43.236;27.986;2023-04-24T02:12:32;10.88;;;4.50;;
10309;SDS011;5200;43.236;27.986;2023-04-24T02:15:01;12.85;;;4.30;;
10309;SDS011;5200;43.236;27.986;2023-04-24T02:17:28;8.90;;;4.80;;
10309;SDS011;5200;43.236;27.986;2023-04-24T02:19:55;7.65;;;4.85;;
10309;SDS011;5200;43.236;27.986;2023-04-24T02:22:22;8.00;;;3.90;;
10309;SDS011;5200;43.236;27.986;2023-04-24T02:24:49;6.22;;;4.03;;
10309;SDS011;5200;43.236;27.986;2023-04-24T02:27:16;11.63;;;5.47;;
10309;SDS011;5200;43.236;27.986;2023-04-24T02:29:43;6.90;;;4.22;;
10309;SDS011;5200;43.236;27.986;2023-04-24T02:32:11;4.90;;;4.15;;
10309;SDS011;5200;43.236;27.986;2023-04-24T02:34:38;9.45;;;4.50;;
10309;SDS011;5200;43.236;27.986;2023-04-24T02:37:04;8.25;;;4.10;;
10309;SDS011;5200;43.236;27.986;2023-04-24T02:39:31;9.27;;;4.47;;
10309;SDS011;5200;43.236;27.986;2023-04-24T02:41:58;5.47;;;4.03;;
10309;SDS011;5200;43.236;27.986;2023-04-24T02:44:25;6.82;;;4.38;;
10309;SDS011;5200;43.236;27.986;2023-04-24T02:46:52;10.23;;;4.38;;
10309;SDS011;5200;43.236;27.986;2023-04-24T02:49:20;8.82;;;3.95;;
10309;SDS011;5200;43.236;27.986;2023-04-24T02:51:47;8.77;;;3.88;;
10309;SDS011;5200;43.236;27.986;2023-04-24T02:54:13;10.25;;;4.60;;
10309;SDS011;5200;43.236;27.986;2023-04-24T02:56:40;5.70;;;3.88;;
10309;SDS011;5200;43.236;27.986;2023-04-24T02:59:07;5.40;;;3.75;;
10309;SDS011;5200;43.236;27.986;2023-04-24T03:01:35;7.85;;;3.75;;
10309;SDS011;5200;43.236;27.986;2023-04-24T03:04:02;10.02;;;4.35;;
10309;SDS011;5200;43.236;27.986;2023-04-24T03:06:30;7.80;;;4.05;;
10309;SDS011;5200;43.236;27.986;2023-04-24T03:08:57;8.27;;;4.60;;
10309;SDS011;5200;43.236;27.986;2023-04-24T03:11:24;7.45;;;4.55;;
10309;SDS011;5200;43.236;27.986;2023-04-24T03:13:51;7.55;;;4.40;;
10309;SDS011;5200;43.236;27.986;2023-04-24T03:16:18;8.40;;;4.72;;
10309;SDS011;5200;43.236;27.986;2023-04-24T03:18:45;8.38;;;4.28;;
10309;SDS011;5200;43.236;27.986;2023-04-24T03:21:12;12.38;;;4.95;;
10309;SDS011;5200;43.236;27.986;2023-04-24T03:23:40;10.88;;;5.35;;
10309;SDS011;5200;43.236;27.986;2023-04-24T03:26:07;6.47;;;4.95;;
10309;SDS011;5200;43.236;27.986;2023-04-24T03:28:33;8.27;;;3.70;;
10309;SDS011;5200;43.236;27.986;2023-04-24T03:31:00;8.50;;;4.68;;
10309;SDS011;5200;43.236;27.986;2023-04-24T03:33:27;5.05;;;3.85;;
10309;SDS011;5200;43.236;27.986;2023-04-24T03:35:54;5.25;;;3.83;;
10309;SDS011;5200;43.236;27.986;2023-04-24T03:38:20;4.90;;;3.70;;
10309;SDS011;5200;43.236;27.986;2023-04-24T03:40:49;5.57;;;3.47;;
10309;SDS011;5200;43.236;27.986;2023-04-24T03:43:15;10.02;;;3.58;;
10309;SDS011;5200;43.236;27.986;2023-04-24T03:45:42;10.63;;;4.15;;
10309;SDS011;5200;43.236;27.986;2023-04-24T03:48:09;4.78;;;3.75;;
10309;SDS011;5200;43.236;27.986;2023-04-24T03:50:36;10.38;;;3.80;;
10309;SDS011;5200;43.236;27.986;2023-04-24T03:53:03;10.48;;;5.03;;
10309;SDS011;5200;43.236;27.986;2023-04-24T03:55:30;9.88;;;3.58;;
10309;SDS011;5200;43.236;27.986;2023-04-24T03:57:58;9.68;;;4.00;;
10309;SDS011;5200;43.236;27.986;2023-04-24T04:00:25;10.20;;;3.75;;
10309;SDS011;5200;43.236;27.986;2023-04-24T04:02:52;7.40;;;3.60;;
10309;SDS011;5200;43.236;27.986;2023-04-24T04:05:20;8.63;;;3.50;;
10309;SDS011;5200;43.236;27.986;2023-04-24T04:07:46;6.45;;;3.53;;
10309;SDS011;5200;43.236;27.986;2023-04-24T04:10:13;3.70;;;2.88;;
10309;SDS011;5200;43.236;27.986;2023-04-24T04:12:40;4.93;;;3.28;;
10309;SDS011;5200;43.236;27.986;2023-04-24T04:15:08;6.65;;;3.75;;
10309;SDS011;5200;43.236;27.986;2023-04-24T04:17:36;3.97;;;2.92;;
10309;SDS011;5200;43.236;27.986;2023-04-24T04:20:04;7.47;;;2.90;;
10309;SDS011;5200;43.236;27.986;2023-04-24T04:22:34;5.78;;;2.97;;
10309;SDS011;5200;43.236;27.986;2023-04-24T04:25:01;4.80;;;2.80;;
10309;SDS011;5200;43.236;27.986;2023-04-24T04:27:28;9.18;;;3.47;;
10309;SDS011;5200;43.236;27.986;2023-04-24T04:29:57;8.93;;;3.58;;
10309;SDS011;5200;43.236;27.986;2023-04-24T04:32:25;6.88;;;3.67;;
10309;SDS011;5200;43.236;27.986;2023-04-24T04:34:52;8.93;;;3.00;;
10309;SDS011;5200;43.236;27.986;2023-04-24T04:37:19;9.85;;;3.10;;
10309;SDS011;5200;43.236;27.986;2023-04-24T04:39:46;11.75;;;3.33;;
10309;SDS011;5200;43.236;27.986;2023-04-24T04:42:13;9.70;;;3.40;;
10309;SDS011;5200;43.236;27.986;2023-04-24T04:44:40;9.15;;;3.40;;
10309;SDS011;5200;43.236;27.986;2023-04-24T04:47:08;6.68;;;3.05;;
10309;SDS011;5200;43.236;27.986;2023-04-24T04:49:37;4.78;;;2.67;;
10309;SDS011;5200;43.236;27.986;2023-04-24T04:52:04;11.23;;;3.08;;
10309;SDS011;5200;43.236;27.986;2023-04-24T04:54:31;7.20;;;2.85;;
10309;SDS011;5200;43.236;27.986;2023-04-24T04:56:58;3.17;;;2.85;;
10309;SDS011;5200;43.236;27.986;2023-04-24T04:59:25;8.27;;;3.30;;
10309;SDS011;5200;43.236;27.986;2023-04-24T05:01:52;10.38;;;2.97;;
10309;SDS011;5200;43.236;27.986;2023-04-24T05:04:19;7.20;;;3.50;;
10309;SDS011;5200;43.236;27.986;2023-04-24T05:06:47;5.53;;;3.03;;
10309;SDS011;5200;43.236;27.986;2023-04-24T05:09:16;12.02;;;3.28;;
10309;SDS011;5200;43.236;27.986;2023-04-24T05:11:42;7.40;;;2.67;;
10309;SDS011;5200;43.236;27.986;2023-04-24T05:14:09;7.75;;;3.13;;
10309;SDS011;5200;43.236;27.986;2023-04-24T05:16:37;19.52;;;3.35;;
10309;SDS011;5200;43.236;27.986;2023-04-24T05:19:04;7.72;;;2.85;;
10309;SDS011;5200;43.236;27.986;2023-04-24T05:21:31;7.43;;;2.92;;
10309;SDS011;5200;43.236;27.986;2023-04-24T05:23:59;6.55;;;2.90;;
10309;SDS011;5200;43.236;27.986;2023-04-24T05:26:26;7.47;;;2.83;;
10309;SDS011;5200;43.236;27.986;2023-04-24T05:28:53;5.55;;;2.72;;
10309;SDS011;5200;43.236;27.986;2023-04-24T05:31:20;5.35;;;3.10;;
10309;SDS011;5200;43.236;27.986;2023-04-24T05:33:47;9.18;;;2.92;;
10309;SDS011;5200;43.236;27.986;2023-04-24T05:36:13;9.75;;;3.20;;
10309;SDS011;5200;43.236;27.986;2023-04-24T05:38:40;8.80;;;3.03;;
10309;SDS011;5200;43.236;27.986;2023-04-24T05:41:08;5.03;;;2.78;;
10309;SDS011;5200;43.236;27.986;2023-04-24T05:43:35;6.72;;;3.10;;
10309;SDS011;5200;43.236;27.986;2023-04-24T05:46:02;10.10;;;2.72;;
10309;SDS011;5200;43.236;27.986;2023-04-24T05:48:29;8.70;;;3.20;;
10309;SDS011;5200;43.236;27.986;2023-04-24T05:50:56;7.05;;;3.20;;
10309;SDS011;5200;43.236;27.986;2023-04-24T05:53:22;8.27;;;3.15;;
10309;SDS011;5200;43.236;27.986;2023-04-24T05:55:49;8.07;;;3.42;;
10309;SDS011;5200;43.236;27.986;2023-04-24T05:58:17;5.85;;;3.15;;
10309;SDS011;5200;43.236;27.986;2023-04-24T06:00:44;5.45;;;3.10;;
10309;SDS011;5200;43.236;27.986;2023-04-24T06:03:11;5.15;;;3.28;;
10309;SDS011;5200;43.236;27.986;2023-04-24T06:05:38;6.88;;;2.92;;
10309;SDS011;5200;43.236;27.986;2023-04-24T06:08:05;3.38;;;3.08;;
10309;SDS011;5200;43.236;27.986;2023-04-24T06:10:32;7.10;;;2.90;;
10309;SDS011;5200;43.236;27.986;2023-04-24T06:12:59;4.03;;;2.38;;
10309;SDS011;5200;43.236;27.986;2023-04-24T06:15:28;8.00;;;2.80;;
10309;SDS011;5200;43.236;27.986;2023-04-24T06:17:56;7.13;;;3.03;;
10309;SDS011;5200;43.236;27.986;2023-04-24T06:20:23;5.00;;;2.40;;
10309;SDS011;5200;43.236;27.986;2023-04-24T06:22:50;6.20;;;2.88;;
10309;SDS011;5200;43.236;27.986;2023-04-24T06:25:17;7.93;;;2.53;;
10309;SDS011;5200;43.236;27.986;2023-04-24T06:27:47;13.00;;;3.15;;
10309;SDS011;5200;43.236;27.986;2023-04-24T06:30:16;8.45;;;2.72;;
10309;SDS011;5200;43.236;27.986;2023-04-24T06:32:44;8.60;;;2.75;;
10309;SDS011;5200;43.236;27.986;2023-04-24T06:35:11;6.68;;;2.55;;
10309;SDS011;5200;43.236;27.986;2023-04-24T06:37:38;5.57;;;2.67;;
10309;SDS011;5200;43.236;27.986;2023-04-24T06:40:06;5.03;;;2.72;;
10309;SDS011;5200;43.236;27.986;2023-04-24T06:42:33;5.57;;;2.70;;
10309;SDS011;5200;43.236;27.986;2023-04-24T06:45:01;4.88;;;2.95;;
10309;SDS011;5200;43.236;27.986;2023-04-24T06:47:28;10.50;;;2.45;;
10309;SDS011;5200;43.236;27.986;2023-04-24T06:49:56;5.53;;;2.47;;
10309;SDS011;5200;43.236;27.986;2023-04-24T06:52:23;11.05;;;3.67;;
10309;SDS011;5200;43.236;27.986;2023-04-24T06:54:50;3.95;;;2.45;;
10309;SDS011;5200;43.236;27.986;2023-04-24T06:57:17;6.28;;;2.83;;
10309;SDS011;5200;43.236;27.986;2023-04-24T06:59:44;5.57;;;2.58;;
10309;SDS011;5200;43.236;27.986;2023-04-24T07:02:11;6.75;;;2.70;;
10309;SDS011;5200;43.236;27.986;2023-04-24T07:04:37;5.30;;;2.80;;
10309;SDS011;5200;43.236;27.986;2023-04-24T07:07:06;9.10;;;2.78;;
10309;SDS011;5200;43.236;27.986;2023-04-24T07:09:34;5.35;;;2.58;;
10309;SDS011;5200;43.236;27.986;2023-04-24T07:12:03;6.93;;;2.92;;
10309;SDS011;5200;43.236;27.986;2023-04-24T07:14:31;6.00;;;3.03;;
10309;SDS011;5200;43.236;27.986;2023-04-24T07:16:57;6.20;;;2.90;;
10309;SDS011;5200;43.236;27.986;2023-04-24T07:19:24;7.65;;;2.83;;
10309;SDS011;5200;43.236;27.986;2023-04-24T07:21:51;7.07;;;3.08;;
10309;SDS011;5200;43.236;27.986;2023-04-24T07:24:20;4.57;;;3.17;;
10309;SDS011;5200;43.236;27.986;2023-04-24T07:26:47;6.93;;;2.83;;
10309;SDS011;5200;43.236;27.986;2023-04-24T07:29:14;5.13;;;3.25;;
10309;SDS011;5200;43.236;27.986;2023-04-24T07:31:40;6.97;;;4.10;;
10309;SDS011;5200;43.236;27.986;2023-04-24T07:34:07;9.45;;;2.80;;
10309;SDS011;5200;43.236;27.986;2023-04-24T07:36:34;13.40;;;3.42;;
10309;SDS011;5200;43.236;27.986;2023-04-24T07:39:03;8.43;;;3.30;;
10309;SDS011;5200;43.236;27.986;2023-04-24T07:41:32;3.63;;;2.78;;
10309;SDS011;5200;43.236;27.986;2023-04-24T07:43:59;5.63;;;2.80;;
10309;SDS011;5200;43.236;27.986;2023-04-24T07:46:25;5.22;;;2.90;;
10309;SDS011;5200;43.236;27.986;2023-04-24T07:48:54;9.43;;;3.78;;
10309;SDS011;5200;43.236;27.986;2023-04-24T07:51:21;7.00;;;2.50;;
10309;SDS011;5200;43.236;27.986;2023-04-24T07:53:48;5.53;;;2.47;;
10309;SDS011;5200;43.236;27.986;2023-04-24T07:56:15;8.05;;;3.15;;
10309;SDS011;5200;43.236;27.986;2023-04-24T07:58:43;9.23;;;3.45;;
10309;SDS011;5200;43.236;27.986;2023-04-24T08:01:10;9.38;;;4.38;;
10309;SDS011;5200;43.236;27.986;2023-04-24T08:03:37;6.07;;;4.28;;
10309;SDS011;5200;43.236;27.986;2023-04-24T08:06:04;7.65;;;3.70;;
10309;SDS011;5200;43.236;27.986;2023-04-24T08:08:31;10.73;;;5.45;;
10309;SDS011;5200;43.236;27.986;2023-04-24T08:10:59;8.57;;;2.97;;
10309;SDS011;5200;43.236;27.986;2023-04-24T08:13:25;8.07;;;3.10;;
10309;SDS011;5200;43.236;27.986;2023-04-24T08:15:53;6.78;;;4.72;;
10309;SDS011;5200;43.236;27.986;2023-04-24T08:18:20;7.57;;;2.42;;
10309;SDS011;5200;43.236;27.986;2023-04-24T08:20:48;10.82;;;3.30;;
10309;SDS011;5200;43.236;27.986;2023-04-24T08:23:14;7.32;;;3.40;;
10309;SDS011;5200;43.236;27.986;2023-04-24T08:25:41;13.35;;;6.38;;
10309;SDS011;5200;43.236;27.986;2023-04-24T08:28:08;11.95;;;6.80;;
10309;SDS011;5200;43.236;27.986;2023-04-24T08:30:35;8.25;;;3.25;;
10309;SDS011;5200;43.236;27.986;2023-04-24T08:33:04;8.85;;;3.42;;
10309;SDS011;5200;43.236;27.986;2023-04-24T08:35:32;9.60;;;3.65;;
10309;SDS011;5200;43.236;27.986;2023-04-24T08:37:59;4.13;;;3.03;;
10309;SDS011;5200;43.236;27.986;2023-04-24T08:40:27;9.68;;;3.28;;
10309;SDS011;5200;43.236;27.986;2023-04-24T08:42:55;5.70;;;3.63;;
10309;SDS011;5200;43.236;27.986;2023-04-24T08:45:22;7.75;;;3.88;;
10309;SDS011;5200;43.236;27.986;2023-04-24T08:47:49;9.93;;;3.50;;
10309;SDS011;5200;43.236;27.986;2023-04-24T08:50:19;6.13;;;3.67;;
10309;SDS011;5200;43.236;27.986;2023-04-24T08:52:47;7.70;;;3.58;;
10309;SDS011;5200;43.236;27.986;2023-04-24T08:55:18;9.15;;;2.95;;
10309;SDS011;5200;43.236;27.986;2023-04-24T08:57:45;4.90;;;3.00;;
10309;SDS011;5200;43.236;27.986;2023-04-24T09:00:17;8.05;;;3.20;;
10309;SDS011;5200;43.236;27.986;2023-04-24T09:02:45;9.07;;;3.08;;
10309;SDS011;5200;43.236;27.986;2023-04-24T09:05:15;5.90;;;3.15;;
10309;SDS011;5200;43.236;27.986;2023-04-24T09:07:46;7.03;;;3.35;;
10309;SDS011;5200;43.236;27.986;2023-04-24T09:10:19;7.85;;;3.80;;
10309;SDS011;5200;43.236;27.986;2023-04-24T09:12:47;8.05;;;3.78;;
10309;SDS011;5200;43.236;27.986;2023-04-24T09:15:15;7.57;;;3.35;;
10309;SDS011;5200;43.236;27.986;2023-04-24T09:17:43;5.38;;;3.30;;
10309;SDS011;5200;43.236;27.986;2023-04-24T09:20:10;6.18;;;2.72;;
10309;SDS011;5200;43.236;27.986;2023-04-24T09:22:37;4.65;;;3.20;;
10309;SDS011;5200;43.236;27.986;2023-04-24T09:25:06;5.40;;;2.92;;
10309;SDS011;5200;43.236;27.986;2023-04-24T09:27:34;6.18;;;3.05;;
10309;SDS011;5200;43.236;27.986;2023-04-24T09:30:01;7.20;;;3.20;;
10309;SDS011;5200;43.236;27.986;2023-04-24T09:32:29;9.48;;;3.30;;
10309;SDS011;5200;43.236;27.986;2023-04-24T09:35:09;4.90;;;2.95;;
10309;SDS011;5200;43.236;27.986;2023-04-24T09:37:38;10.02;;;3.40;;
10309;SDS011;5200;43.236;27.986;2023-04-24T09:40:12;11.45;;;3.25;;
10309;SDS011;5200;43.236;27.986;2023-04-24T09:42:46;5.75;;;2.85;;
10309;SDS011;5200;43.236;27.986;2023-04-24T09:45:21;9.70;;;3.28;;
10309;SDS011;5200;43.236;27.986;2023-04-24T09:47:51;4.78;;;3.42;;
10309;SDS011;5200;43.236;27.986;2023-04-24T09:50:19;6.55;;;2.90;;
10309;SDS011;5200;43.236;27.986;2023-04-24T09:52:46;7.22;;;3.25;;
10309;SDS011;5200;43.236;27.986;2023-04-24T09:55:23;7.75;;;2.88;;
10309;SDS011;5200;43.236;27.986;2023-04-24T09:57:51;5.43;;;3.33;;
10309;SDS011;5200;43.236;27.986;2023-04-24T10:00:22;7.55;;;3.17;;
10309;SDS011;5200;43.236;27.986;2023-04-24T10:02:54;4.57;;;3.28;;
10309;SDS011;5200;43.236;27.986;2023-04-24T10:05:23;5.32;;;3.05;;
10309;SDS011;5200;43.236;27.986;2023-04-24T10:07:50;9.40;;;3.22;;
10309;SDS011;5200;43.236;27.986;2023-04-24T10:10:17;4.05;;;3.00;;
10309;SDS011;5200;43.236;27.986;2023-04-24T10:12:46;3.13;;;2.78;;
10309;SDS011;5200;43.236;27.986;2023-04-24T10:15:13;6.50;;;3.30;;
10309;SDS011;5200;43.236;27.986;2023-04-24T10:17:45;9.38;;;3.45;;
10309;SDS011;5200;43.236;27.986;2023-04-24T10:20:17;8.00;;;3.00;;
10309;SDS011;5200;43.236;27.986;2023-04-24T10:22:45;6.25;;;2.97;;
10309;SDS011;5200;43.236;27.986;2023-04-24T10:25:16;5.63;;;2.92;;
10309;SDS011;5200;43.236;27.986;2023-04-24T10:27:45;8.95;;;3.25;;
10309;SDS011;5200;43.236;27.986;2023-04-24T10:30:14;6.00;;;3.30;;
10309;SDS011;5200;43.236;27.986;2023-04-24T10:32:41;9.02;;;2.95;;
10309;SDS011;5200;43.236;27.986;2023-04-24T10:35:08;11.10;;;2.90;;
10309;SDS011;5200;43.236;27.986;2023-04-24T10:37:36;10.52;;;3.45;;
10309;SDS011;5200;43.236;27.986;2023-04-24T10:40:06;6.13;;;3.03;;
10309;SDS011;5200;43.236;27.986;2023-04-24T10:42:34;5.90;;;3.10;;
10309;SDS011;5200;43.236;27.986;2023-04-24T10:45:07;6.97;;;3.60;;
10309;SDS011;5200;43.236;27.986;2023-04-24T10:47:47;5.57;;;2.95;;
10309;SDS011;5200;43.236;27.986;2023-04-24T10:50:17;8.40;;;3.58;;
10309;SDS011;5200;43.236;27.986;2023-04-24T10:52:45;5.05;;;3.20;;
10309;SDS011;5200;43.236;27.986;2023-04-24T10:55:12;8.32;;;3.17;;
10309;SDS011;5200;43.236;27.986;2023-04-24T10:57:40;5.93;;;3.03;;
10309;SDS011;5200;43.236;27.986;2023-04-24T11:00:29;5.70;;;3.13;;
10309;SDS011;5200;43.236;27.986;2023-04-24T11:02:56;6.45;;;3.65;;
10309;SDS011;5200;43.236;27.986;2023-04-24T11:08:25;9.32;;;3.72;;
10309;SDS011;5200;43.236;27.986;2023-04-24T11:10:55;4.65;;;3.33;;
10309;SDS011;5200;43.236;27.986;2023-04-24T11:16:31;9.18;;;3.97;;
10309;SDS011;5200;43.236;27.986;2023-04-24T11:19:03;8.52;;;3.72;;
10309;SDS011;5200;43.236;27.986;2023-04-24T11:21:31;4.97;;;3.55;;
10309;SDS011;5200;43.236;27.986;2023-04-24T11:26:54;15.13;;;3.95;;
10309;SDS011;5200;43.236;27.986;2023-04-24T11:29:22;10.18;;;3.90;;
10309;SDS011;5200;43.236;27.986;2023-04-24T11:31:50;8.25;;;4.05;;
10309;SDS011;5200;43.236;27.986;2023-04-24T11:34:18;6.22;;;3.25;;
10309;SDS011;5200;43.236;27.986;2023-04-24T11:36:45;8.77;;;3.63;;
10309;SDS011;5200;43.236;27.986;2023-04-24T11:39:13;7.35;;;3.53;;
10309;SDS011;5200;43.236;27.986;2023-04-24T11:41:40;4.30;;;3.13;;
10309;SDS011;5200;43.236;27.986;2023-04-24T11:44:07;6.97;;;3.58;;
10309;SDS011;5200;43.236;27.986;2023-04-24T11:46:35;7.22;;;3.58;;
10309;SDS011;5200;43.236;27.986;2023-04-24T11:49:04;7.60;;;3.10;;
10309;SDS011;5200;43.236;27.986;2023-04-24T11:51:31;10.40;;;3.60;;
10309;SDS011;5200;43.236;27.986;2023-04-24T11:53:58;7.60;;;3.53;;
10309;SDS011;5200;43.236;27.986;2023-04-24T11:56:25;5.07;;;3.10;;
10309;SDS011;5200;43.236;27.986;2023-04-24T11:58:52;6.35;;;3.83;;
10309;SDS011;5200;43.236;27.986;2023-04-24T12:01:20;8.60;;;3.28;;
10309;SDS011;5200;43.236;27.986;2023-04-24T12:03:47;6.35;;;3.50;;
10309;SDS011;5200;43.236;27.986;2023-04-24T12:06:17;6.30;;;3.33;;
10309;SDS011;5200;43.236;27.986;2023-04-24T12:08:48;6.80;;;3.60;;
10309;SDS011;5200;43.236;27.986;2023-04-24T12:11:15;6.28;;;3.47;;
10309;SDS011;5200;43.236;27.986;2023-04-24T12:13:45;6.15;;;3.00;;
10309;SDS011;5200;43.236;27.986;2023-04-24T12:16:12;6.47;;;3.22;;
10309;SDS011;5200;43.236;27.986;2023-04-24T12:18:43;5.03;;;3.53;;
10309;SDS011;5200;43.236;27.986;2023-04-24T12:21:19;4.43;;;3.30;;
10309;SDS011;5200;43.236;27.986;2023-04-24T12:23:47;6.47;;;3.25;;
10309;SDS011;5200;43.236;27.986;2023-04-24T12:26:16;8.60;;;3.95;;
10309;SDS011;5200;43.236;27.986;2023-04-24T12:28:45;6.50;;;3.55;;
10309;SDS011;5200;43.236;27.986;2023-04-24T12:31:13;7.60;;;3.90;;
10309;SDS011;5200;43.236;27.986;2023-04-24T12:33:40;4.22;;;3.72;;
10309;SDS011;5200;43.236;27.986;2023-04-24T12:36:09;10.60;;;3.95;;
10309;SDS011;5200;43.236;27.986;2023-04-24T12:38:38;7.47;;;3.63;;
10309;SDS011;5200;43.236;27.986;2023-04-24T12:41:12;6.65;;;4.03;;
10309;SDS011;5200;43.236;27.986;2023-04-24T12:43:50;8.23;;;4.20;;
10309;SDS011;5200;43.236;27.986;2023-04-24T12:46:17;6.53;;;3.85;;
10309;SDS011;5200;43.236;27.986;2023-04-24T12:48:44;7.70;;;4.25;;
10309;SDS011;5200;43.236;27.986;2023-04-24T12:51:11;6.32;;;3.60;;
10309;SDS011;5200;43.236;27.986;2023-04-24T12:53:39;8.23;;;3.90;;
10309;SDS011;5200;43.236;27.986;2023-04-24T12:56:06;9.38;;;4.50;;
10309;SDS011;5200;43.236;27.986;2023-04-24T12:58:33;8.52;;;4.32;;
10309;SDS011;5200;43.236;27.986;2023-04-24T13:01:00;6.65;;;4.00;;
10309;SDS011;5200;43.236;27.986;2023-04-24T13:03:27;5.55;;;4.00;;
10309;SDS011;5200;43.236;27.986;2023-04-24T13:05:54;7.63;;;3.90;;
10309;SDS011;5200;43.236;27.986;2023-04-24T13:08:20;7.03;;;4.57;;
10309;SDS011;5200;43.236;27.986;2023-04-24T13:10:49;6.68;;;4.20;;
10309;SDS011;5200;43.236;27.986;2023-04-24T13:13:17;7.70;;;3.85;;
10309;SDS011;5200;43.236;27.986;2023-04-24T13:15:43;9.55;;;4.22;;
10309;SDS011;5200;43.236;27.986;2023-04-24T13:18:10;9.30;;;4.80;;
10309;SDS011;5200;43.236;27.986;2023-04-24T13:20:37;14.98;;;5.22;;
10309;SDS011;5200;43.236;27.986;2023-04-24T13:23:05;5.55;;;4.50;;
10309;SDS011;5200;43.236;27.986;2023-04-24T13:28:55;7.45;;;4.13;;
10309;SDS011;5200;43.236;27.986;2023-04-24T13:31:22;13.43;;;3.83;;
10309;SDS011;5200;43.236;27.986;2023-04-24T13:33:49;5.03;;;3.75;;
10309;SDS011;5200;43.236;27.986;2023-04-24T13:36:16;8.85;;;4.38;;
10309;SDS011;5200;43.236;27.986;2023-04-24T13:38:43;5.78;;;3.58;;
10309;SDS011;5200;43.236;27.986;2023-04-24T13:41:10;9.45;;;4.28;;
10309;SDS011;5200;43.236;27.986;2023-04-24T13:43:37;7.80;;;4.32;;
10309;SDS011;5200;43.236;27.986;2023-04-24T13:46:05;10.10;;;3.92;;
10309;SDS011;5200;43.236;27.986;2023-04-24T13:48:32;9.55;;;4.00;;
10309;SDS011;5200;43.236;27.986;2023-04-24T13:50:59;9.48;;;4.28;;
10309;SDS011;5200;43.236;27.986;2023-04-24T13:53:25;8.02;;;4.07;;
10309;SDS011;5200;43.236;27.986;2023-04-24T13:55:52;8.40;;;4.18;;
10309;SDS011;5200;43.236;27.986;2023-04-24T13:58:19;9.77;;;4.25;;
10309;SDS011;5200;43.236;27.986;2023-04-24T14:00:46;9.10;;;3.80;;
10309;SDS011;5200;43.236;27.986;2023-04-24T14:03:15;9.35;;;4.00;;
10309;SDS011;5200;43.236;27.986;2023-04-24T14:05:41;8.55;;;4.15;;
10309;SDS011;5200;43.236;27.986;2023-04-24T14:08:08;5.38;;;3.72;;
10309;SDS011;5200;43.236;27.986;2023-04-24T14:10:35;9.68;;;4.20;;
10309;SDS011;5200;43.236;27.986;2023-04-24T14:13:02;9.70;;;3.72;;
10309;SDS011;5200;43.236;27.986;2023-04-24T14:15:29;7.45;;;4.03;;
10309;SDS011;5200;43.236;27.986;2023-04-24T14:17:56;14.02;;;4.07;;
10309;SDS011;5200;43.236;27.986;2023-04-24T14:20:24;14.30;;;4.20;;
10309;SDS011;5200;43.236;27.986;2023-04-24T14:22:51;7.32;;;4.30;;
10309;SDS011;5200;43.236;27.986;2023-04-24T14:25:18;8.05;;;4.10;;
10309;SDS011;5200;43.236;27.986;2023-04-24T14:27:45;8.38;;;3.97;;
10309;SDS011;5200;43.236;27.986;2023-04-24T14:30:12;7.95;;;4.18;;
10309;SDS011;5200;43.236;27.986;2023-04-24T14:32:40;6.40;;;4.03;;
10309;SDS011;5200;43.236;27.986;2023-04-24T14:35:07;8.43;;;3.50;;
10309;SDS011;5200;43.236;27.986;2023-04-24T14:37:36;6.80;;;3.70;;
10309;SDS011;5200;43.236;27.986;2023-04-24T14:40:03;6.13;;;3.65;;
10309;SDS011;5200;43.236;27.986;2023-04-24T14:42:31;8.02;;;4.07;;
10309;SDS011;5200;43.236;27.986;2023-04-24T14:44:58;6.95;;;3.92;;
10309;SDS011;5200;43.236;27.986;2023-04-24T14:47:25;9.32;;;4.57;;
10309;SDS011;5200;43.236;27.986;2023-04-24T14:49:52;11.95;;;3.83;;
10309;SDS011;5200;43.236;27.986;2023-04-24T14:52:18;9.07;;;4.65;;
10309;SDS011;5200;43.236;27.986;2023-04-24T14:58:00;12.05;;;5.40;;
10309;SDS011;5200;43.236;27.986;2023-04-24T15:00:27;9.48;;;4.90;;
10309;SDS011;5200;43.236;27.986;2023-04-24T15:02:53;9.55;;;5.32;;
10309;SDS011;5200;43.236;27.986;2023-04-24T15:05:21;6.50;;;4.82;;